Minerva Lisa — SVNH — position and weather

sailwx.info

Track history (hours):
 
Tides and Currents Weather Stations Pressure Air Temp Water Temp Dewpoint Dewpoint Depression Visibility Wind Speed Wind Dir Waves Ship Positions

Minerva Lisa

Last reported at 2018-Apr-15 01:37 UTC. Time now 2018-Apr-24 05:08 UTC.
Position N 37°27' W 029°44'.
Warning: this ship's position is 9 days out of date.

Length 243 m; draft 12.5 m.

Type: Ship. MMSI: 240235000.

Date/timePositionNaut miles runAvg speedWind from/ knotsBaromVisibWave heightAir tempDewpointWater temp
2018-Apr-15 01:37N 37°27' W 029°44'211.7
2018-Apr-15 01:29N 37°28' W 029°42'612.3
2018-Apr-15 01:00N 37°29' W 029°35'612.0
2018-Apr-15 00:30N 37°31' W 029°27'611.9
2018-Apr-15 00:00N 37°32' W 029°20'611.8
2018-Apr-14 23:30N 37°34' W 029°13'611.6
2018-Apr-14 23:00N 37°35' W 029°06'611.4
2018-Apr-14 22:30N 37°36' W 028°59'611.3
2018-Apr-14 22:01N 37°38' W 028°52'611.6
2018-Apr-14 21:30N 37°39' W 028°45'611.4
2018-Apr-14 21:00N 37°41' W 028°38'510.9
2018-Apr-14 20:30N 37°42' W 028°31'611.0
2018-Apr-14 20:00N 37°44' W 028°25'611.1
2018-Apr-14 19:31N 37°45' W 028°18'611.5
2018-Apr-14 19:00N 37°46' W 028°11'611.4
2018-Apr-14 18:30N 37°48' W 028°04'611.1
2018-Apr-14 18:00N 37°49' W 027°57'611.9
2018-Apr-14 17:30N 37°51' W 027°50'612.0
2018-Apr-14 17:00N 37°52' W 027°42'611.7
2018-Apr-14 16:30N 37°54' W 027°35'612.0
2018-Apr-14 16:01N 37°55' W 027°28'612.2
2018-Apr-14 15:30N 37°57' W 027°20'611.8
2018-Apr-14 15:00N 37°58' W 027°13'612.0
2018-Apr-14 14:30N 37°60' W 027°06'612.2
2018-Apr-14 14:00N 38°01' W 026°58'4012.1
2018-Apr-14 10:41N 38°20' W 026°13'312.8
2018-Apr-14 10:28N 38°22' W 026°10'1812.7
2018-Apr-14 09:02N 38°35' W 025°54'014.0
2018-Apr-14 09:00N 38°35' W 025°54'11312.2
2018-Apr-13 23:45N 39°55' W 024°10'412.1
2018-Apr-13 23:25N 39°58' W 024°07'512.1
2018-Apr-13 23:00N 40°02' W 024°02'  
2018-Apr-10 05:46N 49°45' W 003°48'712.2
2018-Apr-10 05:13N 49°48' W 003°38'312.0
2018-Apr-10 05:00N 49°49' W 003°34'612.0
2018-Apr-10 04:30N 49°51' W 003°26'611.8
2018-Apr-10 04:00N 49°53' W 003°17'611.6
2018-Apr-10 03:27N 49°56' W 003°08'511.4
2018-Apr-10 03:00N 49°58' W 003°01'611.3
2018-Apr-10 02:30N 49°60' W 002°52'611.4
2018-Apr-10 02:00N 50°01' W 002°44'611.4
2018-Apr-10 01:27N 50°03' W 002°34'2411.9
2018-Apr-09 23:27N 50°09' W 001°59'612.8
2018-Apr-09 23:00N 50°11' W 001°50'713.1
2018-Apr-09 22:30N 50°13' W 001°40'713.4
2018-Apr-09 22:00N 50°15' W 001°30'713.5
2018-Apr-09 21:30N 50°17' W 001°20'713.9
2018-Apr-09 21:00N 50°19' W 001°10'714.2
2018-Apr-09 20:29N 50°20' W 000°58'813.9
2018-Apr-09 19:53N 50°23' W 000°46'1813.3
2018-Apr-09 18:33N 50°27' W 000°19'113.6
2018-Apr-09 18:29N 50°28' W 000°18'612.6
2018-Apr-09 18:00N 50°30' W 000°09'612.7
2018-Apr-09 17:30N 50°31' E 000°01'612.6
2018-Apr-09 17:01N 50°33' E 000°10'612.4
2018-Apr-09 16:30N 50°35' E 000°20'612.2
2018-Apr-09 16:01N 50°37' E 000°29'611.9
2018-Apr-09 15:31N 50°39' E 000°38'612.3
2018-Apr-09 15:01N 50°42' E 000°46'612.6
2018-Apr-09 14:31N 50°46' E 000°54'612.9
2018-Apr-09 14:00N 50°50' E 001°02'713.3
2018-Apr-09 13:29N 50°55' E 001°10'813.8
2018-Apr-09 12:52N 51°01' E 001°19'514.1
2018-Apr-09 12:30N 51°04' E 001°26'714.1
2018-Apr-09 12:00N 51°08' E 001°35'713.8
2018-Apr-09 11:30N 51°12' E 001°44'613.0
2018-Apr-09 11:00N 51°18' E 001°49'612.8
2018-Apr-09 10:30N 51°23' E 001°54'612.3
2018-Apr-09 10:00N 51°28' E 001°59'612.0
2018-Apr-09 09:30N 51°33' E 002°05'612.0
2018-Apr-09 09:00N 51°37' E 002°12'611.9
2018-Apr-09 08:30N 51°42' E 002°19'611.8
2018-Apr-09 07:59N 51°46' E 002°25'711.7
2018-Apr-09 07:24N 51°51' E 002°33'811.8
2018-Apr-09 06:45N 51°57' E 002°42'1311.0
2018-Apr-09 05:35N 52°02' E 003°00'212.3
2018-Apr-09 05:26N 52°03' E 003°03'512.4
2018-Apr-09 04:59N 52°03' E 003°12'812.6
2018-Apr-09 04:23N 52°03' E 003°24'512.9
2018-Apr-09 03:59N 52°04' E 003°33'713.2
2018-Apr-09 03:30N 52°04' E 003°43'611.4
2018-Apr-09 03:00N 52°02' E 003°52'4 8.1
2018-Apr-09 02:30N 52°01' E 003°58'611.3
2018-Apr-09 02:00N 51°58' E 004°07'3 6.1
2018-Apr-09 01:30N 51°56' E 004°11'1 1.8
2018-Apr-09 00:59N 51°56' E 004°12'0 0.0
2018-Apr-09 00:29N 51°56' E 004°12'0 0.0
2018-Apr-08 23:59N 51°56' E 004°12'0 0.0
2018-Apr-08 23:29N 51°56' E 004°12'0 0.0
2018-Apr-08 22:59N 51°56' E 004°12'0 0.0
2018-Apr-08 22:29N 51°56' E 004°12'0 0.0
2018-Apr-08 21:59N 51°56' E 004°12'0 0.0
2018-Apr-08 21:26N 51°56' E 004°12'0 0.0
2018-Apr-08 20:59N 51°56' E 004°12'0 0.0
2018-Apr-08 20:29N 51°56' E 004°12'0 0.0
2018-Apr-08 19:59N 51°56' E 004°12'0 0.0
2018-Apr-08 19:29N 51°56' E 004°12'0 0.0
2018-Apr-08 18:56N 51°56' E 004°12'0 0.0
2018-Apr-08 18:29N 51°56' E 004°12'0 0.0
2018-Apr-08 17:59N 51°56' E 004°12'0 0.0
2018-Apr-08 17:29N 51°56' E 004°12'0 0.0
2018-Apr-08 16:59N 51°56' E 004°12'0 0.0
2018-Apr-08 16:29N 51°56' E 004°12'0 0.0
2018-Apr-08 15:59N 51°56' E 004°12'0 0.0
2018-Apr-08 15:26N 51°56' E 004°12'0 0.0
2018-Apr-08 14:56N 51°56' E 004°12'0 0.0
2018-Apr-08 14:26N 51°56' E 004°12'0 0.0
2018-Apr-08 13:59N 51°56' E 004°12'0 0.0
2018-Apr-08 13:29N 51°56' E 004°12'0 0.0
2018-Apr-08 12:56N 51°56' E 004°12'0 0.0
2018-Apr-08 12:29N 51°56' E 004°12'0 0.0
2018-Apr-08 11:59N 51°56' E 004°12'0 0.0
2018-Apr-08 11:20N 51°56' E 004°12'0 0.0
2018-Apr-08 10:59N 51°56' E 004°12'0 0.0
2018-Apr-08 10:26N 51°56' E 004°12'0 0.0
2018-Apr-08 09:59N 51°56' E 004°12'0 0.0
2018-Apr-08 09:29N 51°56' E 004°12'0 0.0
2018-Apr-08 08:59N 51°56' E 004°12'0 0.0
2018-Apr-08 08:26N 51°56' E 004°12'0 0.0
2018-Apr-08 07:59N 51°56' E 004°12'0 0.0
2018-Apr-08 07:29N 51°56' E 004°12'0 0.0
2018-Apr-08 06:59N 51°56' E 004°12'0 0.0
2018-Apr-08 06:29N 51°56' E 004°12'0 0.0
2018-Apr-08 05:59N 51°56' E 004°12'0 0.0
2018-Apr-08 05:29N 51°56' E 004°12'0 0.0
2018-Apr-08 04:56N 51°56' E 004°12'0 0.0
2018-Apr-08 04:29N 51°56' E 004°12'0 0.0
2018-Apr-08 03:59N 51°56' E 004°12'0 0.0
2018-Apr-08 03:29N 51°56' E 004°12'0 0.0
2018-Apr-08 02:59N 51°56' E 004°12'0 0.0
2018-Apr-08 02:26N 51°56' E 004°12'0 0.0
2018-Apr-08 01:59N 51°56' E 004°12'0 0.9
2018-Apr-08 01:30N 51°56' E 004°12'2 4.0
2018-Apr-08 01:00N 51°57' E 004°10'5 9.1
2018-Apr-08 00:30N 51°59' E 004°03'2 3.8
2018-Apr-08 00:00N 52°00' E 004°01'611.1
2018-Apr-07 23:30N 51°58' E 004°09'510.1
2018-Apr-07 23:00N 51°55' E 004°15'2 3.9
2018-Apr-07 22:30N 51°53' E 004°18'0 0.4
2018-Apr-07 21:58N 51°53' E 004°17'0 0.0
2018-Apr-07 21:28N 51°53' E 004°17'0 0.0
2018-Apr-07 17:52N 51°53' E 004°17'0 0.0
2018-Apr-07 17:22N 51°53' E 004°17'0 0.0
2018-Apr-07 16:22N 51°53' E 004°17'0 0.0
2018-Apr-07 15:16N 51°53' E 004°17'0 0.0
2018-Apr-07 14:46N 51°53' E 004°17'0 0.0
2018-Apr-07 14:22N 51°53' E 004°17'0 0.0
2018-Apr-07 13:46N 51°53' E 004°17'0 0.0
2018-Apr-07 12:34N 51°53' E 004°17'0 0.0
2018-Apr-07 12:13N 51°53' E 004°17'0 0.0
2018-Apr-07 10:58N 51°53' E 004°17'0 0.0
2018-Apr-07 08:22N 51°53' E 004°17'0 0.0
2018-Apr-07 07:10N 51°53' E 004°17'0 0.0
2018-Apr-07 06:58N 51°53' E 004°17'0 0.0
2018-Apr-07 05:01N 51°53' E 004°17'0 0.0
2018-Apr-07 04:37N 51°53' E 004°17'0 0.0
2018-Apr-07 01:46N 51°53' E 004°17'0 0.0
2018-Apr-07 01:22N 51°53' E 004°17'0 0.0
2018-Apr-06 23:28N 51°53' E 004°17'0 0.0
2018-Apr-06 22:49N 51°53' E 004°17'0 0.0
2018-Apr-06 21:34N 51°53' E 004°17'0 0.1
2018-Apr-06 21:28N 51°53' E 004°17'0 0.0
2018-Apr-06 20:58N 51°53' E 004°17'0 0.0
2018-Apr-06 20:10N 51°53' E 004°17'0 0.0
2018-Apr-06 19:46N 51°53' E 004°17'0 0.0
2018-Apr-06 19:10N 51°53' E 004°17'0 0.0
2018-Apr-06 18:43N 51°53' E 004°17'0 0.0
2018-Apr-06 18:19N 51°53' E 004°17'0 0.0
2018-Apr-06 17:16N 51°53' E 004°17'0 0.0
2018-Apr-06 16:58N 51°53' E 004°17'0 0.0
2018-Apr-06 16:28N 51°53' E 004°17'0 0.0
2018-Apr-06 15:55N 51°53' E 004°17'0 0.0
2018-Apr-06 15:25N 51°53' E 004°17'0 0.0
2018-Apr-06 14:52N 51°53' E 004°17'0 0.0
2018-Apr-06 11:52N 51°53' E 004°17'0 0.0
2018-Apr-06 11:25N 51°53' E 004°17'0 0.0
2018-Apr-06 07:58N 51°53' E 004°17'0 0.0
2018-Apr-05 23:19N 51°53' E 004°17'0 0.0
2018-Apr-05 22:10N 51°53' E 004°17'0 0.0
2018-Apr-05 21:52N 51°53' E 004°17'0 0.0
2018-Apr-05 21:30N 51°53' E 004°17'0 0.3
2018-Apr-05 21:00N 51°53' E 004°17'1 1.5
2018-Apr-05 20:31N 51°54' E 004°18'3 5.1
2018-Apr-05 20:00N 51°55' E 004°14'5 9.5
2018-Apr-05 19:30N 51°58' E 004°09'510.5
2018-Apr-05 19:00N 51°60' E 004°01'714.0
2018-Apr-05 18:30N 52°00' E 003°49'4 8.3
2018-Apr-05 18:01N 51°58' E 003°43'914.2
2018-Apr-05 17:24N 51°57' E 003°29'612.7
2018-Apr-05 16:56N 51°55' E 003°20'712.7
2018-Apr-05 16:24N 51°53' E 003°10'512.7
2018-Apr-05 15:59N 51°51' E 003°02'1512.9
2018-Apr-05 14:52N 51°46' E 002°40'513.4
2018-Apr-05 14:30N 51°43' E 002°34'713.4
2018-Apr-05 14:00N 51°38' E 002°27'713.2
2018-Apr-05 13:30N 51°33' E 002°20'612.1
2018-Apr-05 13:01N 51°28' E 002°14'612.3
2018-Apr-05 12:30N 51°22' E 002°10'611.5
2018-Apr-05 12:01N 51°17' E 002°07'510.6
2018-Apr-05 11:30N 51°13' E 002°02'510.9
2018-Apr-05 11:00N 51°10' E 001°54'510.6
2018-Apr-05 10:31N 51°08' E 001°47'510.0
2018-Apr-05 10:00N 51°04' E 001°41'5 9.9
2018-Apr-05 09:31N 51°00' E 001°36'510.2
2018-Apr-05 09:00N 50°57' E 001°30'4010.8
2018-Apr-05 05:16N 50°28' E 000°46'1812.4
2018-Apr-05 03:48N 50°23' E 000°19'512.4
2018-Apr-05 03:23N 50°21' E 000°11'512.7
2018-Apr-05 03:00N 50°20' E 000°04'612.9
2018-Apr-05 02:30N 50°19' W 000°06'713.2
2018-Apr-05 02:00N 50°17' W 000°16'  
Track history (hours):
 
Tides and Currents Weather Stations Pressure Air Temp Water Temp Dewpoint Dewpoint Depression Visibility Wind Speed Wind Dir Waves Ship Positions

Minerva Lisa

Last reported at 2018-Apr-15 01:37 UTC. Time now 2018-Apr-24 05:08 UTC.
Position N 37°27' W 029°44'.
Warning: this ship's position is 9 days out of date.

Length 243 m; draft 12.5 m.

Type: Ship. MMSI: 240235000.

Date/timePositionNaut miles runAvg speedWind from/ knotsBaromVisibWave heightAir tempDewpointWater temp
2018-Apr-15 01:37N 37°27' W 029°44'211.7
2018-Apr-15 01:29N 37°28' W 029°42'612.3
2018-Apr-15 01:00N 37°29' W 029°35'612.0
2018-Apr-15 00:30N 37°31' W 029°27'611.9
2018-Apr-15 00:00N 37°32' W 029°20'611.8
2018-Apr-14 23:30N 37°34' W 029°13'611.6
2018-Apr-14 23:00N 37°35' W 029°06'611.4
2018-Apr-14 22:30N 37°36' W 028°59'611.3
2018-Apr-14 22:01N 37°38' W 028°52'611.6
2018-Apr-14 21:30N 37°39' W 028°45'611.4
2018-Apr-14 21:00N 37°41' W 028°38'510.9
2018-Apr-14 20:30N 37°42' W 028°31'611.0
2018-Apr-14 20:00N 37°44' W 028°25'611.1
2018-Apr-14 19:31N 37°45' W 028°18'611.5
2018-Apr-14 19:00N 37°46' W 028°11'611.4
2018-Apr-14 18:30N 37°48' W 028°04'611.1
2018-Apr-14 18:00N 37°49' W 027°57'611.9
2018-Apr-14 17:30N 37°51' W 027°50'612.0
2018-Apr-14 17:00N 37°52' W 027°42'611.7
2018-Apr-14 16:30N 37°54' W 027°35'612.0
2018-Apr-14 16:01N 37°55' W 027°28'612.2
2018-Apr-14 15:30N 37°57' W 027°20'611.8
2018-Apr-14 15:00N 37°58' W 027°13'612.0
2018-Apr-14 14:30N 37°60' W 027°06'612.2
2018-Apr-14 14:00N 38°01' W 026°58'4012.1
2018-Apr-14 10:41N 38°20' W 026°13'312.8
2018-Apr-14 10:28N 38°22' W 026°10'1812.7
2018-Apr-14 09:02N 38°35' W 025°54'014.0
2018-Apr-14 09:00N 38°35' W 025°54'11312.2
2018-Apr-13 23:45N 39°55' W 024°10'412.1
2018-Apr-13 23:25N 39°58' W 024°07'512.1
2018-Apr-13 23:00N 40°02' W 024°02'  
2018-Apr-10 05:46N 49°45' W 003°48'712.2
2018-Apr-10 05:13N 49°48' W 003°38'312.0
2018-Apr-10 05:00N 49°49' W 003°34'612.0
2018-Apr-10 04:30N 49°51' W 003°26'611.8
2018-Apr-10 04:00N 49°53' W 003°17'611.6
2018-Apr-10 03:27N 49°56' W 003°08'511.4
2018-Apr-10 03:00N 49°58' W 003°01'611.3
2018-Apr-10 02:30N 49°60' W 002°52'611.4
2018-Apr-10 02:00N 50°01' W 002°44'611.4
2018-Apr-10 01:27N 50°03' W 002°34'2411.9
2018-Apr-09 23:27N 50°09' W 001°59'612.8
2018-Apr-09 23:00N 50°11' W 001°50'713.1
2018-Apr-09 22:30N 50°13' W 001°40'713.4
2018-Apr-09 22:00N 50°15' W 001°30'713.5
2018-Apr-09 21:30N 50°17' W 001°20'713.9
2018-Apr-09 21:00N 50°19' W 001°10'714.2
2018-Apr-09 20:29N 50°20' W 000°58'813.9
2018-Apr-09 19:53N 50°23' W 000°46'1813.3
2018-Apr-09 18:33N 50°27' W 000°19'113.6
2018-Apr-09 18:29N 50°28' W 000°18'612.6
2018-Apr-09 18:00N 50°30' W 000°09'612.7
2018-Apr-09 17:30N 50°31' E 000°01'612.6
2018-Apr-09 17:01N 50°33' E 000°10'612.4
2018-Apr-09 16:30N 50°35' E 000°20'612.2
2018-Apr-09 16:01N 50°37' E 000°29'611.9
2018-Apr-09 15:31N 50°39' E 000°38'612.3
2018-Apr-09 15:01N 50°42' E 000°46'612.6
2018-Apr-09 14:31N 50°46' E 000°54'612.9
2018-Apr-09 14:00N 50°50' E 001°02'713.3
2018-Apr-09 13:29N 50°55' E 001°10'813.8
2018-Apr-09 12:52N 51°01' E 001°19'514.1
2018-Apr-09 12:30N 51°04' E 001°26'714.1
2018-Apr-09 12:00N 51°08' E 001°35'713.8
2018-Apr-09 11:30N 51°12' E 001°44'613.0
2018-Apr-09 11:00N 51°18' E 001°49'612.8
2018-Apr-09 10:30N 51°23' E 001°54'612.3
2018-Apr-09 10:00N 51°28' E 001°59'612.0
2018-Apr-09 09:30N 51°33' E 002°05'612.0
2018-Apr-09 09:00N 51°37' E 002°12'611.9
2018-Apr-09 08:30N 51°42' E 002°19'611.8
2018-Apr-09 07:59N 51°46' E 002°25'711.7
2018-Apr-09 07:24N 51°51' E 002°33'811.8
2018-Apr-09 06:45N 51°57' E 002°42'1311.0
2018-Apr-09 05:35N 52°02' E 003°00'212.3
2018-Apr-09 05:26N 52°03' E 003°03'512.4
2018-Apr-09 04:59N 52°03' E 003°12'812.6
2018-Apr-09 04:23N 52°03' E 003°24'512.9
2018-Apr-09 03:59N 52°04' E 003°33'713.2
2018-Apr-09 03:30N 52°04' E 003°43'611.4
2018-Apr-09 03:00N 52°02' E 003°52'4 8.1
2018-Apr-09 02:30N 52°01' E 003°58'611.3
2018-Apr-09 02:00N 51°58' E 004°07'3 6.1
2018-Apr-09 01:30N 51°56' E 004°11'1 1.8
2018-Apr-09 00:59N 51°56' E 004°12'0 0.0
2018-Apr-09 00:29N 51°56' E 004°12'0 0.0
2018-Apr-08 23:59N 51°56' E 004°12'0 0.0
2018-Apr-08 23:29N 51°56' E 004°12'0 0.0
2018-Apr-08 22:59N 51°56' E 004°12'0 0.0
2018-Apr-08 22:29N 51°56' E 004°12'0 0.0
2018-Apr-08 21:59N 51°56' E 004°12'0 0.0
2018-Apr-08 21:26N 51°56' E 004°12'0 0.0
2018-Apr-08 20:59N 51°56' E 004°12'0 0.0
2018-Apr-08 20:29N 51°56' E 004°12'0 0.0
2018-Apr-08 19:59N 51°56' E 004°12'0 0.0
2018-Apr-08 19:29N 51°56' E 004°12'0 0.0
2018-Apr-08 18:56N 51°56' E 004°12'0 0.0
2018-Apr-08 18:29N 51°56' E 004°12'0 0.0
2018-Apr-08 17:59N 51°56' E 004°12'0 0.0
2018-Apr-08 17:29N 51°56' E 004°12'0 0.0
2018-Apr-08 16:59N 51°56' E 004°12'0 0.0
2018-Apr-08 16:29N 51°56' E 004°12'0 0.0
2018-Apr-08 15:59N 51°56' E 004°12'0 0.0
2018-Apr-08 15:26N 51°56' E 004°12'0 0.0
2018-Apr-08 14:56N 51°56' E 004°12'0 0.0
2018-Apr-08 14:26N 51°56' E 004°12'0 0.0
2018-Apr-08 13:59N 51°56' E 004°12'0 0.0
2018-Apr-08 13:29N 51°56' E 004°12'0 0.0
2018-Apr-08 12:56N 51°56' E 004°12'0 0.0
2018-Apr-08 12:29N 51°56' E 004°12'0 0.0
2018-Apr-08 11:59N 51°56' E 004°12'0 0.0
2018-Apr-08 11:20N 51°56' E 004°12'0 0.0
2018-Apr-08 10:59N 51°56' E 004°12'0 0.0
2018-Apr-08 10:26N 51°56' E 004°12'0 0.0
2018-Apr-08 09:59N 51°56' E 004°12'0 0.0
2018-Apr-08 09:29N 51°56' E 004°12'0 0.0
2018-Apr-08 08:59N 51°56' E 004°12'0 0.0
2018-Apr-08 08:26N 51°56' E 004°12'0 0.0
2018-Apr-08 07:59N 51°56' E 004°12'0 0.0
2018-Apr-08 07:29N 51°56' E 004°12'0 0.0
2018-Apr-08 06:59N 51°56' E 004°12'0 0.0
2018-Apr-08 06:29N 51°56' E 004°12'0 0.0
2018-Apr-08 05:59N 51°56' E 004°12'0 0.0
2018-Apr-08 05:29N 51°56' E 004°12'0 0.0
2018-Apr-08 04:56N 51°56' E 004°12'0 0.0
2018-Apr-08 04:29N 51°56' E 004°12'0 0.0
2018-Apr-08 03:59N 51°56' E 004°12'0 0.0
2018-Apr-08 03:29N 51°56' E 004°12'0 0.0
2018-Apr-08 02:59N 51°56' E 004°12'0 0.0
2018-Apr-08 02:26N 51°56' E 004°12'0 0.0
2018-Apr-08 01:59N 51°56' E 004°12'0 0.9
2018-Apr-08 01:30N 51°56' E 004°12'2 4.0
2018-Apr-08 01:00N 51°57' E 004°10'5 9.1
2018-Apr-08 00:30N 51°59' E 004°03'2 3.8
2018-Apr-08 00:00N 52°00' E 004°01'611.1
2018-Apr-07 23:30N 51°58' E 004°09'510.1
2018-Apr-07 23:00N 51°55' E 004°15'2 3.9
2018-Apr-07 22:30N 51°53' E 004°18'0 0.4
2018-Apr-07 21:58N 51°53' E 004°17'0 0.0
2018-Apr-07 21:28N 51°53' E 004°17'0 0.0
2018-Apr-07 17:52N 51°53' E 004°17'0 0.0
2018-Apr-07 17:22N 51°53' E 004°17'0 0.0
2018-Apr-07 16:22N 51°53' E 004°17'0 0.0
2018-Apr-07 15:16N 51°53' E 004°17'0 0.0
2018-Apr-07 14:46N 51°53' E 004°17'0 0.0
2018-Apr-07 14:22N 51°53' E 004°17'0 0.0
2018-Apr-07 13:46N 51°53' E 004°17'0 0.0
2018-Apr-07 12:34N 51°53' E 004°17'0 0.0
2018-Apr-07 12:13N 51°53' E 004°17'0 0.0
2018-Apr-07 10:58N 51°53' E 004°17'0 0.0
2018-Apr-07 08:22N 51°53' E 004°17'0 0.0
2018-Apr-07 07:10N 51°53' E 004°17'0 0.0
2018-Apr-07 06:58N 51°53' E 004°17'0 0.0
2018-Apr-07 05:01N 51°53' E 004°17'0 0.0
2018-Apr-07 04:37N 51°53' E 004°17'0 0.0
2018-Apr-07 01:46N 51°53' E 004°17'0 0.0
2018-Apr-07 01:22N 51°53' E 004°17'0 0.0
2018-Apr-06 23:28N 51°53' E 004°17'0 0.0
2018-Apr-06 22:49N 51°53' E 004°17'0 0.0
2018-Apr-06 21:34N 51°53' E 004°17'0 0.1
2018-Apr-06 21:28N 51°53' E 004°17'0 0.0
2018-Apr-06 20:58N 51°53' E 004°17'0 0.0
2018-Apr-06 20:10N 51°53' E 004°17'0 0.0
2018-Apr-06 19:46N 51°53' E 004°17'0 0.0
2018-Apr-06 19:10N 51°53' E 004°17'0 0.0
2018-Apr-06 18:43N 51°53' E 004°17'0 0.0
2018-Apr-06 18:19N 51°53' E 004°17'0 0.0
2018-Apr-06 17:16N 51°53' E 004°17'0 0.0
2018-Apr-06 16:58N 51°53' E 004°17'0 0.0
2018-Apr-06 16:28N 51°53' E 004°17'0 0.0
2018-Apr-06 15:55N 51°53' E 004°17'0 0.0
2018-Apr-06 15:25N 51°53' E 004°17'0 0.0
2018-Apr-06 14:52N 51°53' E 004°17'0 0.0
2018-Apr-06 11:52N 51°53' E 004°17'0 0.0
2018-Apr-06 11:25N 51°53' E 004°17'0 0.0
2018-Apr-06 07:58N 51°53' E 004°17'0 0.0
2018-Apr-05 23:19N 51°53' E 004°17'0 0.0
2018-Apr-05 22:10N 51°53' E 004°17'0 0.0
2018-Apr-05 21:52N 51°53' E 004°17'0 0.0
2018-Apr-05 21:30N 51°53' E 004°17'0 0.3
2018-Apr-05 21:00N 51°53' E 004°17'1 1.5
2018-Apr-05 20:31N 51°54' E 004°18'3 5.1
2018-Apr-05 20:00N 51°55' E 004°14'5 9.5
2018-Apr-05 19:30N 51°58' E 004°09'510.5
2018-Apr-05 19:00N 51°60' E 004°01'714.0
2018-Apr-05 18:30N 52°00' E 003°49'4 8.3
2018-Apr-05 18:01N 51°58' E 003°43'914.2
2018-Apr-05 17:24N 51°57' E 003°29'612.7
2018-Apr-05 16:56N 51°55' E 003°20'712.7
2018-Apr-05 16:24N 51°53' E 003°10'512.7
2018-Apr-05 15:59N 51°51' E 003°02'1512.9
2018-Apr-05 14:52N 51°46' E 002°40'513.4
2018-Apr-05 14:30N 51°43' E 002°34'713.4
2018-Apr-05 14:00N 51°38' E 002°27'713.2
2018-Apr-05 13:30N 51°33' E 002°20'612.1
2018-Apr-05 13:01N 51°28' E 002°14'612.3
2018-Apr-05 12:30N 51°22' E 002°10'611.5
2018-Apr-05 12:01N 51°17' E 002°07'510.6
2018-Apr-05 11:30N 51°13' E 002°02'510.9
2018-Apr-05 11:00N 51°10' E 001°54'510.6
2018-Apr-05 10:31N 51°08' E 001°47'510.0
2018-Apr-05 10:00N 51°04' E 001°41'5 9.9
2018-Apr-05 09:31N 51°00' E 001°36'510.2
2018-Apr-05 09:00N 50°57' E 001°30'4010.8
2018-Apr-05 05:16N 50°28' E 000°46'1812.4
2018-Apr-05 03:48N 50°23' E 000°19'512.4
2018-Apr-05 03:23N 50°21' E 000°11'512.7
2018-Apr-05 03:00N 50°20' E 000°04'612.9
2018-Apr-05 02:30N 50°19' W 000°06'713.2
2018-Apr-05 02:00N 50°17' W 000°16'  

Dump ship's entire track history